createdAt,value
2017-11-04T00:01:05.593Z,69.40
2017-11-04T00:03:33.796Z,69.60
2017-11-04T00:06:01.240Z,68.90
2017-11-04T00:08:28.729Z,68.80
2017-11-04T00:10:56.269Z,68.80
2017-11-04T00:13:23.703Z,68.50
2017-11-04T00:15:51.932Z,69.00
2017-11-04T00:18:19.371Z,69.00
2017-11-04T00:20:46.826Z,68.80
2017-11-04T00:23:14.251Z,68.60
2017-11-04T00:25:41.687Z,68.50
2017-11-04T00:28:09.121Z,67.90
2017-11-04T00:30:36.565Z,67.80
2017-11-04T00:33:04.112Z,67.70
2017-11-04T00:35:31.539Z,68.50
2017-11-04T00:37:59.016Z,67.90
2017-11-04T00:40:26.458Z,67.70
2017-11-04T00:42:53.909Z,68.40
2017-11-04T00:45:21.395Z,67.80
2017-11-04T00:47:48.820Z,67.80
2017-11-04T00:50:17.025Z,68.20
2017-11-04T00:52:44.471Z,68.30
2017-11-04T00:55:11.908Z,68.70
2017-11-04T00:57:39.454Z,69.40
2017-11-04T01:00:06.897Z,70.30
2017-11-04T01:02:34.338Z,70.20
2017-11-04T01:05:01.806Z,71.20
2017-11-04T01:07:29.249Z,72.10
2017-11-04T01:09:56.872Z,73.10
2017-11-04T01:12:24.291Z,73.50
2017-11-04T01:14:51.741Z,73.70
2017-11-04T01:17:19.196Z,73.50
2017-11-04T01:19:46.648Z,73.30
2017-11-04T01:22:14.859Z,73.40
2017-11-04T01:24:42.361Z,73.30
2017-11-04T01:27:09.901Z,72.90
2017-11-04T01:29:37.331Z,73.10
2017-11-04T01:32:04.772Z,73.70
2017-11-04T01:34:32.232Z,74.90
2017-11-04T01:36:59.672Z,76.00
2017-11-04T01:39:27.112Z,76.30
2017-11-04T01:41:54.659Z,76.10
2017-11-04T01:44:22.107Z,75.00
2017-11-04T01:46:49.562Z,74.50
2017-11-04T01:49:17.792Z,74.00
2017-11-04T01:51:45.219Z,74.10
2017-11-04T01:54:12.175Z,74.00
2017-11-04T01:56:39.615Z,74.80
2017-11-04T01:59:07.053Z,75.40
2017-11-04T02:01:34.531Z,75.80
2017-11-04T02:04:02.867Z,75.70
2017-11-04T02:06:30.279Z,75.50
2017-11-04T02:08:57.707Z,75.60
2017-11-04T02:11:25.142Z,75.50
2017-11-04T02:13:52.591Z,75.40
2017-11-04T02:16:20.052Z,74.70
2017-11-04T02:18:47.485Z,74.40
2017-11-04T02:21:14.960Z,74.00
2017-11-04T02:23:42.558Z,74.00
2017-11-04T02:26:09.972Z,74.60
2017-11-04T02:28:37.424Z,75.10
2017-11-04T02:31:04.910Z,74.80
2017-11-04T02:33:32.355Z,74.80
2017-11-04T02:35:59.800Z,75.20
2017-11-04T02:38:27.241Z,75.20
2017-11-04T02:40:54.676Z,74.80
2017-11-04T02:43:22.103Z,75.00
2017-11-04T02:45:49.540Z,74.80
2017-11-04T02:48:16.995Z,73.60
2017-11-04T02:50:44.431Z,72.90
2017-11-04T02:53:11.860Z,73.00
2017-11-04T02:55:39.328Z,73.10
2017-11-04T02:58:06.761Z,73.00
2017-11-04T03:00:34.298Z,73.30
2017-11-04T03:03:01.728Z,73.50
2017-11-04T03:05:29.225Z,72.70
2017-11-04T03:07:56.663Z,72.80
2017-11-04T03:10:24.875Z,73.00
2017-11-04T03:12:53.099Z,72.70
2017-11-04T03:15:20.531Z,72.70
2017-11-04T03:17:47.959Z,72.30
2017-11-04T03:20:15.411Z,73.20
2017-11-04T03:22:42.823Z,72.00
2017-11-04T03:25:10.316Z,72.90
2017-11-04T03:27:37.755Z,72.50
2017-11-04T03:30:05.208Z,72.50
2017-11-04T03:32:32.747Z,71.70
2017-11-04T03:35:00.287Z,71.70
2017-11-04T03:37:27.731Z,71.50
2017-11-04T03:39:55.161Z,71.60
2017-11-04T03:42:22.588Z,72.10
2017-11-04T03:44:50.035Z,71.60
2017-11-04T03:47:17.511Z,71.10
2017-11-04T03:49:44.954Z,72.30
2017-11-04T03:52:12.384Z,72.80
2017-11-04T03:54:39.828Z,73.40
2017-11-04T03:57:07.379Z,73.60
2017-11-04T03:59:34.800Z,73.00
2017-11-04T04:02:02.240Z,72.20
2017-11-04T04:04:29.667Z,71.40
2017-11-04T04:06:57.152Z,71.60
2017-11-04T04:09:24.609Z,72.00
2017-11-04T04:11:52.034Z,72.10
2017-11-04T04:14:20.233Z,71.90
2017-11-04T04:16:47.695Z,72.00
2017-11-04T04:19:15.143Z,72.10
2017-11-04T04:21:42.580Z,72.20
2017-11-04T04:24:10.026Z,72.00
2017-11-04T04:26:37.481Z,71.40
2017-11-04T04:29:04.900Z,71.00
2017-11-04T04:31:32.354Z,70.40
2017-11-04T04:34:00.547Z,70.40
2017-11-04T04:36:28.764Z,70.10
2017-11-04T04:38:56.229Z,70.20
2017-11-04T04:41:23.681Z,69.60
2017-11-04T04:43:51.116Z,69.50
2017-11-04T04:46:19.324Z,69.80
2017-11-04T04:48:46.765Z,69.90
2017-11-04T04:51:14.257Z,70.30
2017-11-04T04:53:41.788Z,70.20
2017-11-04T04:56:09.353Z,69.30
2017-11-04T04:58:36.884Z,69.30
2017-11-04T05:01:04.321Z,70.40
2017-11-04T05:03:31.776Z,71.00
2017-11-04T05:05:59.288Z,70.40
2017-11-04T05:08:26.729Z,70.20
2017-11-04T05:10:54.203Z,69.90
2017-11-04T05:13:21.654Z,70.00
2017-11-04T05:15:49.099Z,69.30
2017-11-04T05:18:16.560Z,69.40
2017-11-04T05:20:43.987Z,69.50
2017-11-04T05:23:11.550Z,69.50
2017-11-04T05:25:38.984Z,69.90
2017-11-04T05:28:07.236Z,69.90
2017-11-04T05:30:34.671Z,69.90
2017-11-04T05:33:02.123Z,69.70
2017-11-04T05:35:29.552Z,70.10
2017-11-04T05:37:56.991Z,70.20
2017-11-04T05:40:24.436Z,70.20
2017-11-04T05:42:51.900Z,69.80
2017-11-04T05:45:19.323Z,69.50
2017-11-04T05:47:46.768Z,69.70
2017-11-04T05:50:14.196Z,69.60
2017-11-04T05:52:41.628Z,70.00
2017-11-04T05:55:09.069Z,70.30
2017-11-04T05:57:36.503Z,69.90
2017-11-04T06:00:03.945Z,71.10
2017-11-04T06:02:31.378Z,71.60
2017-11-04T06:04:59.577Z,71.80
2017-11-04T06:07:27.016Z,71.90
2017-11-04T06:09:54.480Z,71.60
2017-11-04T06:12:21.981Z,71.30
2017-11-04T06:14:49.426Z,71.10
2017-11-04T06:17:16.860Z,70.70
2017-11-04T06:19:44.411Z,70.70
2017-11-04T06:22:11.851Z,70.70
2017-11-04T06:24:39.279Z,70.60
2017-11-04T06:27:06.708Z,70.70
2017-11-04T06:29:34.136Z,70.30
2017-11-04T06:32:01.631Z,70.10
2017-11-04T06:34:29.881Z,70.50
2017-11-04T06:36:57.323Z,70.50
2017-11-04T06:39:24.761Z,70.20
2017-11-04T06:41:52.215Z,69.60
2017-11-04T06:44:19.644Z,69.70
2017-11-04T06:46:48.113Z,70.30
2017-11-04T06:49:15.539Z,70.00
2017-11-04T06:51:42.976Z,70.50
2017-11-04T06:54:10.485Z,70.30
2017-11-04T06:56:38.703Z,70.40
2017-11-04T06:59:06.132Z,70.50
2017-11-04T07:01:33.601Z,70.00
2017-11-04T07:04:01.171Z,69.50
2017-11-04T07:06:29.427Z,68.70
2017-11-04T07:08:57.669Z,68.30
2017-11-04T07:11:25.104Z,68.20
2017-11-04T07:13:52.708Z,67.60
2017-11-04T07:16:20.908Z,67.50
2017-11-04T07:18:48.335Z,67.40
2017-11-04T07:21:15.773Z,67.50
2017-11-04T07:23:43.273Z,66.80
2017-11-04T07:26:10.703Z,67.30
2017-11-04T07:28:38.151Z,66.30
2017-11-04T07:31:05.587Z,66.60
2017-11-04T07:33:33.070Z,66.40
2017-11-04T07:36:00.517Z,66.40
2017-11-04T07:38:28.759Z,66.60
2017-11-04T07:40:56.188Z,66.60
2017-11-04T07:43:23.630Z,66.80
2017-11-04T07:45:51.079Z,66.90
2017-11-04T07:48:18.615Z,66.20
2017-11-04T07:50:46.071Z,66.10
2017-11-04T07:53:13.613Z,65.90
2017-11-04T07:55:41.053Z,66.00
2017-11-04T07:58:08.492Z,66.00
2017-11-04T08:00:35.949Z,66.70
2017-11-04T08:03:03.496Z,66.50
2017-11-04T08:05:30.924Z,66.30
2017-11-04T08:07:58.428Z,66.60
2017-11-04T08:10:25.885Z,66.00
2017-11-04T08:12:53.492Z,66.20
2017-11-04T08:15:21.704Z,66.00
2017-11-04T08:17:49.141Z,66.00
2017-11-04T08:20:16.662Z,66.00
2017-11-04T08:22:44.115Z,65.70
2017-11-04T08:25:11.700Z,65.20
2017-11-04T08:27:39.139Z,65.30
2017-11-04T08:30:06.601Z,65.30
2017-11-04T08:32:34.037Z,65.20
2017-11-04T08:35:01.604Z,66.00
2017-11-04T08:37:29.832Z,65.60
2017-11-04T08:39:57.377Z,65.60
2017-11-04T08:42:24.808Z,65.40
2017-11-04T08:44:52.253Z,65.20
2017-11-04T08:47:19.985Z,64.90
2017-11-04T08:49:47.418Z,65.10
2017-11-04T08:52:14.848Z,64.80
2017-11-04T08:54:42.292Z,65.30
2017-11-04T08:57:09.749Z,65.00
2017-11-04T08:59:37.223Z,64.40
2017-11-04T09:02:04.751Z,64.20
2017-11-04T09:04:33.237Z,64.20
2017-11-04T09:07:00.689Z,64.00
2017-11-04T09:09:28.913Z,63.00
2017-11-04T09:11:57.129Z,62.60
2017-11-04T09:14:24.580Z,62.50
2017-11-04T09:16:52.066Z,61.50
2017-11-04T09:19:20.253Z,61.30
2017-11-04T09:21:47.710Z,61.30
2017-11-04T09:24:15.186Z,61.00
2017-11-04T09:26:42.655Z,60.70
2017-11-04T09:29:10.862Z,59.30
2017-11-04T09:31:38.534Z,59.30
2017-11-04T09:34:05.964Z,58.80
2017-11-04T09:36:33.425Z,59.20
2017-11-04T09:39:00.849Z,57.60
2017-11-04T09:41:28.403Z,57.60
2017-11-04T09:43:56.644Z,57.30
2017-11-04T09:46:24.092Z,57.30
2017-11-04T09:48:52.101Z,56.10
2017-11-04T09:51:20.517Z,56.20
2017-11-04T09:53:47.960Z,56.30
2017-11-04T09:56:15.436Z,55.70
2017-11-04T09:58:43.679Z,55.20
2017-11-04T10:01:11.256Z,55.30
2017-11-04T10:03:39.480Z,55.10
2017-11-04T10:06:06.949Z,55.00
2017-11-04T10:08:34.481Z,53.90
2017-11-04T10:11:01.933Z,53.30
2017-11-04T10:13:29.381Z,53.10
2017-11-04T10:15:57.600Z,53.30
2017-11-04T10:18:25.052Z,53.20
2017-11-04T10:20:52.508Z,52.90
2017-11-04T10:23:19.953Z,52.10
2017-11-04T10:25:47.396Z,51.60
2017-11-04T10:28:14.867Z,51.70
2017-11-04T10:30:43.076Z,51.20
2017-11-04T10:33:10.567Z,51.10
2017-11-04T10:35:38.420Z,51.00
2017-11-04T10:38:06.659Z,51.40
2017-11-04T10:40:34.157Z,51.30
2017-11-04T10:43:01.636Z,51.50
2017-11-04T10:45:29.181Z,51.80
2017-11-04T10:47:56.642Z,51.00
2017-11-04T10:50:24.088Z,50.80
2017-11-04T10:52:52.306Z,50.30
2017-11-04T10:55:19.756Z,50.30
2017-11-04T10:57:47.208Z,50.00
2017-11-04T11:00:14.643Z,50.30
2017-11-04T11:02:42.230Z,50.00
2017-11-04T11:05:10.441Z,49.50
2017-11-04T11:07:37.880Z,49.50
2017-11-04T11:10:05.430Z,49.30
2017-11-04T11:12:32.893Z,49.10
2017-11-04T11:15:00.328Z,49.10
2017-11-04T11:17:27.789Z,49.60
2017-11-04T11:19:55.271Z,49.50
2017-11-04T11:22:22.748Z,49.30
2017-11-04T11:24:50.192Z,49.70
2017-11-04T11:27:17.668Z,50.10
2017-11-04T11:29:45.920Z,50.70
2017-11-04T11:32:13.460Z,50.40
2017-11-04T11:34:42.449Z,50.30
2017-11-04T11:37:09.900Z,50.30
2017-11-04T11:39:38.626Z,51.00
2017-11-04T11:42:06.072Z,51.70
2017-11-04T11:44:33.513Z,51.00
2017-11-04T11:47:00.951Z,51.20
2017-11-04T11:49:28.416Z,51.50
2017-11-04T11:51:55.862Z,51.80
2017-11-04T11:54:23.402Z,51.40
2017-11-04T11:56:50.967Z,52.10
2017-11-04T11:59:18.425Z,52.20
2017-11-04T12:01:46.623Z,52.20
2017-11-04T12:04:14.081Z,52.20
2017-11-04T12:06:41.524Z,51.80
2017-11-04T12:09:08.973Z,51.90
2017-11-04T12:11:36.461Z,51.90
2017-11-04T12:14:04.672Z,52.50
2017-11-04T12:16:32.109Z,52.50
2017-11-04T12:18:59.605Z,52.20
2017-11-04T12:21:27.808Z,52.30
2017-11-04T12:23:55.369Z,52.20
2017-11-04T12:26:22.808Z,52.40
2017-11-04T12:28:50.240Z,51.90
2017-11-04T12:31:17.692Z,51.80
2017-11-04T12:33:45.137Z,51.30
2017-11-04T12:36:12.583Z,51.40
2017-11-04T12:38:40.024Z,51.50
2017-11-04T12:41:07.465Z,51.30
2017-11-04T12:43:34.904Z,51.20
2017-11-04T12:46:02.365Z,51.40
2017-11-04T12:48:29.815Z,51.20
2017-11-04T12:50:57.349Z,51.10
2017-11-04T12:53:24.797Z,51.30
2017-11-04T12:55:52.247Z,51.40
2017-11-04T12:58:19.797Z,51.60
2017-11-04T13:00:47.436Z,51.70
2017-11-04T13:03:14.919Z,52.10
2017-11-04T13:05:43.148Z,52.30
2017-11-04T13:08:10.667Z,52.30
2017-11-04T13:10:38.133Z,52.60
2017-11-04T13:13:05.684Z,52.60
2017-11-04T13:15:33.133Z,52.70
2017-11-04T13:18:00.567Z,52.70
2017-11-04T13:20:28.029Z,52.90
2017-11-04T13:22:55.553Z,52.60
2017-11-04T13:25:22.996Z,52.50
2017-11-04T13:27:50.441Z,52.40
2017-11-04T13:30:17.923Z,52.30
2017-11-04T13:32:45.380Z,52.20
2017-11-04T13:35:12.828Z,52.40
2017-11-04T13:37:40.324Z,52.40
2017-11-04T13:40:07.765Z,52.40
2017-11-04T13:42:36.037Z,52.50
2017-11-04T13:45:04.284Z,52.40
2017-11-04T13:47:31.728Z,52.30
2017-11-04T13:49:59.167Z,52.50
2017-11-04T13:52:26.645Z,52.60
2017-11-04T13:54:54.948Z,52.60
2017-11-04T13:57:22.392Z,52.50
2017-11-04T13:59:49.855Z,52.60
2017-11-04T14:02:17.400Z,52.60
2017-11-04T14:04:44.948Z,53.00
2017-11-04T14:07:12.483Z,52.80
2017-11-04T14:09:39.948Z,52.70
2017-11-04T14:12:07.396Z,52.70
2017-11-04T14:14:35.644Z,52.70
2017-11-04T14:17:04.046Z,52.70
2017-11-04T14:19:32.255Z,52.50
2017-11-04T14:21:59.718Z,52.50
2017-11-04T14:24:27.155Z,52.90
2017-11-04T14:26:54.782Z,52.90
2017-11-04T14:29:22.215Z,53.30
2017-11-04T14:31:49.668Z,52.90
2017-11-04T14:34:17.123Z,53.10
2017-11-04T14:36:44.677Z,53.20
2017-11-04T14:39:12.116Z,53.20
2017-11-04T14:41:39.592Z,53.40
2017-11-04T14:44:07.826Z,53.50
2017-11-04T14:46:35.320Z,53.40
2017-11-04T14:49:03.518Z,53.70
2017-11-04T14:51:31.008Z,53.60
2017-11-04T14:53:59.238Z,54.30
2017-11-04T14:56:26.781Z,54.20
2017-11-04T14:58:54.217Z,54.20
2017-11-04T15:01:23.169Z,54.50
2017-11-04T15:03:50.641Z,54.50
2017-11-04T15:06:18.080Z,54.50
2017-11-04T15:08:45.641Z,54.80
2017-11-04T15:11:13.078Z,55.00
2017-11-04T15:13:40.519Z,55.20
2017-11-04T15:16:08.090Z,55.10
2017-11-04T15:18:36.297Z,55.20
2017-11-04T15:21:05.448Z,55.20
2017-11-04T15:23:33.636Z,55.50
2017-11-04T15:26:01.124Z,55.50
2017-11-04T15:28:28.668Z,55.60
2017-11-04T15:30:56.258Z,55.70
2017-11-04T15:33:24.460Z,56.20
2017-11-04T15:35:51.923Z,56.20
2017-11-04T15:38:19.404Z,56.50
2017-11-04T15:40:47.597Z,56.70
2017-11-04T15:43:15.027Z,56.70
2017-11-04T15:45:42.488Z,56.90
2017-11-04T15:48:09.956Z,57.20
2017-11-04T15:50:37.401Z,57.50
2017-11-04T15:53:04.837Z,57.50
2017-11-04T15:55:32.284Z,58.00
2017-11-04T15:57:59.730Z,58.30
2017-11-04T16:00:27.176Z,58.80
2017-11-04T16:02:54.617Z,58.90
2017-11-04T16:05:22.055Z,59.40
2017-11-04T16:07:49.599Z,59.70
2017-11-04T16:10:17.047Z,60.20
2017-11-04T16:12:44.488Z,60.50
2017-11-04T16:15:11.931Z,60.90
2017-11-04T16:17:39.375Z,61.00
2017-11-04T16:20:06.906Z,61.30
2017-11-04T16:22:34.348Z,61.50
2017-11-04T16:25:01.788Z,61.50
2017-11-04T16:27:29.239Z,61.70
2017-11-04T16:29:56.758Z,62.10
2017-11-04T16:32:24.196Z,62.00
2017-11-04T16:34:51.651Z,61.80
2017-11-04T16:37:19.120Z,62.20
2017-11-04T16:39:46.566Z,62.00
2017-11-04T16:42:14.009Z,61.90
2017-11-04T16:44:42.298Z,63.00
2017-11-04T16:47:10.492Z,62.50
2017-11-04T16:49:37.947Z,62.50
2017-11-04T16:52:05.685Z,63.00
2017-11-04T16:54:33.136Z,63.00
2017-11-04T16:57:00.590Z,62.90
2017-11-04T16:59:28.047Z,62.60
2017-11-04T17:01:55.493Z,62.40
2017-11-04T17:04:23.093Z,62.60
2017-11-04T17:06:50.681Z,62.90
2017-11-04T17:09:18.099Z,63.20
2017-11-04T17:11:45.589Z,63.40
2017-11-04T17:14:13.790Z,63.50
2017-11-04T17:16:41.269Z,63.50
2017-11-04T17:19:08.891Z,63.70
2017-11-04T17:21:36.338Z,63.80
2017-11-04T17:24:03.801Z,63.80
2017-11-04T17:26:31.312Z,63.80
2017-11-04T17:28:59.308Z,64.20
2017-11-04T17:31:27.602Z,64.20
2017-11-04T17:33:55.792Z,64.10
2017-11-04T17:36:23.250Z,64.10
2017-11-04T17:38:51.081Z,63.90
2017-11-04T17:41:18.509Z,63.90
2017-11-04T17:43:46.091Z,64.00
2017-11-04T17:46:13.536Z,64.50
2017-11-04T17:48:41.032Z,64.00
2017-11-04T17:51:09.280Z,64.30
2017-11-04T17:53:37.508Z,64.00
2017-11-04T17:56:04.995Z,64.00
2017-11-04T17:58:32.531Z,63.80
2017-11-04T18:01:00.853Z,64.20
2017-11-04T18:03:28.297Z,64.30
2017-11-04T18:05:55.749Z,64.30
2017-11-04T18:08:23.997Z,64.40
2017-11-04T18:10:51.543Z,64.30
2017-11-04T18:13:18.961Z,64.10
2017-11-04T18:15:46.400Z,64.10
2017-11-04T18:18:13.922Z,64.30
2017-11-04T18:20:42.132Z,64.20
2017-11-04T18:23:09.580Z,64.20
2017-11-04T18:25:37.032Z,64.10
2017-11-04T18:28:05.337Z,64.20
2017-11-04T18:30:32.805Z,64.70
2017-11-04T18:33:00.273Z,65.20
2017-11-04T18:35:27.708Z,65.20
2017-11-04T18:37:55.257Z,65.20
2017-11-04T18:40:22.696Z,65.50
2017-11-04T18:42:50.145Z,65.80
2017-11-04T18:45:17.587Z,65.90
2017-11-04T18:47:45.186Z,66.10
2017-11-04T18:50:12.624Z,66.80
2017-11-04T18:52:40.075Z,66.90
2017-11-04T18:55:07.592Z,67.00
2017-11-04T18:57:35.797Z,66.30
2017-11-04T19:00:03.237Z,66.30
2017-11-04T19:02:30.684Z,66.50
2017-11-04T19:04:58.149Z,66.50
2017-11-04T19:07:25.671Z,66.80
2017-11-04T19:09:53.111Z,66.70
2017-11-04T19:12:20.628Z,66.60
2017-11-04T19:14:48.119Z,67.00
2017-11-04T19:17:15.768Z,67.00
2017-11-04T19:19:43.251Z,67.00
2017-11-04T19:22:11.495Z,67.00
2017-11-04T19:24:39.017Z,67.00
2017-11-04T19:27:06.452Z,67.40
2017-11-04T19:29:33.990Z,66.70
2017-11-04T19:32:01.448Z,66.80
2017-11-04T19:34:28.992Z,66.50
2017-11-04T19:36:56.575Z,66.40
2017-11-04T19:39:24.788Z,67.10
2017-11-04T19:41:52.228Z,67.10
2017-11-04T19:44:19.682Z,67.10
2017-11-04T19:46:47.232Z,67.10
2017-11-04T19:49:14.667Z,66.80
2017-11-04T19:51:42.120Z,66.90
2017-11-04T19:54:10.366Z,66.20
2017-11-04T19:56:37.819Z,66.30
2017-11-04T19:59:05.256Z,66.20
2017-11-04T20:01:32.764Z,66.10
2017-11-04T20:04:00.258Z,66.10
2017-11-04T20:06:27.720Z,65.90
2017-11-04T20:08:55.983Z,65.80
2017-11-04T20:11:23.412Z,65.70
2017-11-04T20:13:51.001Z,65.60
2017-11-04T20:16:18.484Z,65.50
2017-11-04T20:18:46.079Z,65.50
2017-11-04T20:21:13.572Z,66.00
2017-11-04T20:23:41.185Z,66.30
2017-11-04T20:26:08.659Z,66.60
2017-11-04T20:28:36.164Z,66.60
2017-11-04T20:31:03.648Z,66.40
2017-11-04T20:33:31.104Z,66.40
2017-11-04T20:35:58.556Z,66.40
2017-11-04T20:38:26.867Z,65.80
2017-11-04T20:40:54.303Z,65.70
2017-11-04T20:43:21.745Z,65.40
2017-11-04T20:45:49.229Z,65.40
2017-11-04T20:48:16.671Z,65.50
2017-11-04T20:50:44.108Z,65.40
2017-11-04T20:53:11.643Z,65.50
2017-11-04T20:55:39.121Z,65.50
2017-11-04T20:58:06.578Z,65.20
2017-11-04T21:00:34.841Z,65.20
2017-11-04T21:03:03.061Z,65.40
2017-11-04T21:05:30.629Z,65.30
2017-11-04T21:07:58.112Z,65.80
2017-11-04T21:10:25.539Z,66.40
2017-11-04T21:12:53.068Z,66.60
2017-11-04T21:15:21.406Z,66.80
2017-11-04T21:17:48.898Z,66.80
2017-11-04T21:20:17.170Z,66.00
2017-11-04T21:22:44.588Z,66.00
2017-11-04T21:25:12.992Z,66.00
2017-11-04T21:27:40.524Z,65.90
2017-11-04T21:30:08.115Z,66.10
2017-11-04T21:32:35.612Z,66.00
2017-11-04T21:35:03.178Z,65.90
2017-11-04T21:37:30.691Z,66.00
2017-11-04T21:39:58.983Z,66.30
2017-11-04T21:42:26.492Z,66.20
2017-11-04T21:44:54.696Z,66.40
2017-11-04T21:47:22.215Z,66.40
2017-11-04T21:49:49.742Z,66.90
2017-11-04T21:52:18.003Z,67.90
2017-11-04T21:54:46.279Z,67.90
2017-11-04T21:57:13.761Z,67.90
2017-11-04T21:59:41.271Z,68.10
2017-11-04T22:02:08.695Z,70.90
2017-11-04T22:04:36.208Z,68.50
2017-11-04T22:07:04.512Z,68.10
2017-11-04T22:09:32.059Z,68.10
2017-11-04T22:11:59.540Z,67.90
2017-11-04T22:14:26.988Z,67.90
2017-11-04T22:16:54.479Z,68.10
2017-11-04T22:19:22.995Z,68.20
2017-11-04T22:21:50.531Z,68.90
2017-11-04T22:24:17.993Z,69.10
2017-11-04T22:26:45.541Z,69.20
2017-11-04T22:29:12.970Z,68.90
2017-11-04T22:31:40.420Z,68.60
2017-11-04T22:34:07.920Z,69.10
2017-11-04T22:36:35.374Z,68.40
2017-11-04T22:39:02.823Z,68.00
2017-11-04T22:41:30.373Z,67.90
2017-11-04T22:43:57.889Z,67.60
2017-11-04T22:46:25.358Z,67.20
2017-11-04T22:48:52.821Z,67.20
2017-11-04T22:51:20.261Z,67.30
2017-11-04T22:53:48.638Z,67.50
2017-11-04T22:56:16.184Z,67.00
2017-11-04T22:58:43.631Z,67.20
2017-11-04T23:01:11.887Z,67.00
2017-11-04T23:03:39.345Z,66.90
2017-11-04T23:06:07.551Z,66.80
2017-11-04T23:08:35.038Z,66.70
2017-11-04T23:11:02.491Z,66.80
2017-11-04T23:13:30.705Z,66.80
2017-11-04T23:15:58.161Z,66.80
2017-11-04T23:18:25.620Z,66.90
2017-11-04T23:20:53.075Z,66.80
2017-11-04T23:23:21.279Z,66.80
2017-11-04T23:25:48.760Z,66.70
2017-11-04T23:28:16.219Z,67.10
2017-11-04T23:30:44.445Z,67.20
2017-11-04T23:33:11.898Z,67.10
2017-11-04T23:35:39.331Z,67.00
2017-11-04T23:38:06.800Z,66.90
2017-11-04T23:40:34.252Z,67.10
2017-11-04T23:43:02.466Z,67.80
2017-11-04T23:45:29.913Z,67.70
2017-11-04T23:47:57.371Z,67.80
2017-11-04T23:50:24.834Z,67.80
2017-11-04T23:52:52.264Z,67.60
2017-11-04T23:55:29.608Z,67.70
2017-11-04T23:57:57.097Z,67.70
